createdAt,value
2018-07-22T00:00:25.565Z,1.30
2018-07-22T00:03:31.230Z,1.33
2018-07-22T00:06:36.762Z,1.40
2018-07-22T00:09:43.533Z,1.00
2018-07-22T00:12:50.345Z,1.20
2018-07-22T00:15:56.054Z,1.07
2018-07-22T00:19:00.945Z,1.30
2018-07-22T00:22:05.827Z,1.17
2018-07-22T00:25:11.407Z,1.40
2018-07-22T00:28:17.626Z,1.40
2018-07-22T00:31:23.638Z,1.43
2018-07-22T00:34:29.442Z,0.90
2018-07-22T00:37:34.374Z,1.13
2018-07-22T00:40:40.247Z,1.73
2018-07-22T00:43:45.306Z,1.00
2018-07-22T00:46:50.577Z,1.50
2018-07-22T00:49:56.429Z,1.27
2018-07-22T00:53:01.335Z,1.17
2018-07-22T00:56:06.580Z,1.10
2018-07-22T00:59:11.466Z,1.27
2018-07-22T01:02:16.372Z,1.80
2018-07-22T01:05:21.697Z,1.43
2018-07-22T01:08:26.626Z,1.23
2018-07-22T01:11:32.448Z,1.53
2018-07-22T01:14:37.870Z,1.10
2018-07-22T01:17:42.751Z,1.20
2018-07-22T01:20:48.791Z,1.70
2018-07-22T01:23:53.696Z,1.10
2018-07-22T01:26:59.506Z,0.80
2018-07-22T01:30:06.484Z,1.20
2018-07-22T01:33:12.110Z,1.60
2018-07-22T01:36:17.955Z,0.83
2018-07-22T01:39:22.829Z,0.90
2018-07-22T01:42:27.750Z,1.20
2018-07-22T01:45:33.534Z,1.30
2018-07-22T01:48:38.968Z,1.10
2018-07-22T01:51:43.872Z,1.47
2018-07-22T01:54:49.692Z,0.83
2018-07-22T01:57:54.561Z,1.80
2018-07-22T02:01:00.193Z,1.47
2018-07-22T02:04:05.543Z,2.07
2018-07-22T02:07:11.355Z,1.70
2018-07-22T02:10:16.270Z,1.53
2018-07-22T02:13:21.186Z,1.10
2018-07-22T02:16:26.975Z,1.20
2018-07-22T02:19:32.737Z,1.20
2018-07-22T02:22:38.550Z,1.53
2018-07-22T02:25:45.696Z,1.30
2018-07-22T02:28:50.858Z,1.27
2018-07-22T02:31:56.667Z,1.37
2018-07-22T02:35:02.567Z,1.03
2018-07-22T02:38:08.132Z,1.03
2018-07-22T02:41:14.063Z,1.33
2018-07-22T02:44:19.886Z,1.23
2018-07-22T02:47:24.783Z,1.37
2018-07-22T02:50:30.630Z,0.93
2018-07-22T02:53:35.512Z,1.53
2018-07-22T02:56:41.138Z,1.30
2018-07-22T02:59:46.032Z,1.20
2018-07-22T03:02:51.859Z,1.00
2018-07-22T03:05:57.156Z,1.50
2018-07-22T03:09:02.168Z,1.47
2018-07-22T03:12:07.428Z,1.27
2018-07-22T03:15:12.349Z,1.03
2018-07-22T03:18:17.572Z,1.30
2018-07-22T03:21:22.465Z,0.93
2018-07-22T03:24:27.380Z,1.87
2018-07-22T03:27:34.193Z,1.10
2018-07-22T03:30:39.690Z,1.43
2018-07-22T03:33:44.567Z,1.47
2018-07-22T03:36:51.735Z,1.03
2018-07-22T03:39:56.619Z,1.00
2018-07-22T03:43:01.513Z,1.27
2018-07-22T03:46:07.344Z,1.17
2018-07-22T03:49:12.763Z,1.03
2018-07-22T03:52:18.914Z,1.63
2018-07-22T03:55:23.795Z,1.13
2018-07-22T03:58:29.628Z,1.37
2018-07-22T04:01:35.971Z,1.00
2018-07-22T04:04:40.897Z,1.40
2018-07-22T04:07:45.787Z,2.00
2018-07-22T04:10:51.426Z,1.30
2018-07-22T04:13:56.323Z,1.10
2018-07-22T04:17:02.261Z,1.60
2018-07-22T04:20:07.490Z,1.20
2018-07-22T04:23:13.635Z,0.83
2018-07-22T04:26:19.420Z,1.00
2018-07-22T04:29:24.945Z,1.07
2018-07-22T04:32:30.745Z,1.37
2018-07-22T04:35:35.611Z,0.80
2018-07-22T04:38:40.535Z,1.00
2018-07-22T04:41:45.445Z,1.33
2018-07-22T04:44:51.319Z,1.83
2018-07-22T04:47:56.824Z,1.23
2018-07-22T04:51:02.715Z,1.23
2018-07-22T04:54:09.171Z,1.47
2018-07-22T04:57:16.167Z,1.70
2018-07-22T05:00:21.776Z,1.23
2018-07-22T05:03:27.912Z,1.43
2018-07-22T05:06:33.764Z,1.43
2018-07-22T05:09:38.682Z,1.03
2018-07-22T05:12:43.879Z,1.67
2018-07-22T05:15:51.062Z,1.20
2018-07-22T05:18:56.729Z,0.87
2018-07-22T05:22:01.616Z,1.30
2018-07-22T05:25:08.457Z,1.20
2018-07-22T05:28:14.032Z,1.23
2018-07-22T05:31:21.260Z,1.47
2018-07-22T05:34:27.016Z,1.13
2018-07-22T05:37:32.043Z,1.20
2018-07-22T05:40:37.971Z,1.70
2018-07-22T05:43:43.923Z,1.60
2018-07-22T05:46:49.475Z,1.50
2018-07-22T05:49:54.389Z,1.40
2018-07-22T05:52:59.477Z,2.27
2018-07-22T05:56:04.390Z,1.63
2018-07-22T05:59:10.215Z,1.43
2018-07-22T06:02:16.021Z,1.30
2018-07-22T06:05:21.441Z,1.77
2018-07-22T06:08:26.823Z,1.67
2018-07-22T06:11:31.733Z,1.53
2018-07-22T06:14:37.348Z,1.43
2018-07-22T06:17:42.277Z,1.33
2018-07-22T06:20:48.216Z,1.80
2018-07-22T06:23:53.768Z,2.13
2018-07-22T06:26:58.704Z,2.03
2018-07-22T06:30:03.848Z,1.67
2018-07-22T06:33:09.707Z,1.50
2018-07-22T06:36:15.271Z,1.70
2018-07-22T06:39:21.093Z,1.67
2018-07-22T06:42:25.979Z,1.80
2018-07-22T06:45:32.882Z,1.40
2018-07-22T06:48:37.912Z,1.77
2018-07-22T06:51:42.819Z,1.27
2018-07-22T06:54:47.991Z,1.70
2018-07-22T06:57:53.840Z,1.70
2018-07-22T07:01:00.160Z,2.07
2018-07-22T07:04:05.626Z,2.40
2018-07-22T07:07:12.757Z,2.10
2018-07-22T07:10:18.720Z,2.37
2018-07-22T07:13:23.628Z,1.90
2018-07-22T07:16:30.491Z,1.77
2018-07-22T07:19:35.393Z,1.70
2018-07-22T07:22:41.221Z,1.57
2018-07-22T07:25:47.032Z,2.00
2018-07-22T07:28:52.853Z,1.73
2018-07-22T07:31:58.854Z,1.83
2018-07-22T07:35:03.806Z,2.50
2018-07-22T07:38:09.067Z,2.10
2018-07-22T07:41:14.008Z,1.60
2018-07-22T07:44:20.086Z,1.70
2018-07-22T07:47:25.900Z,2.07
2018-07-22T07:50:31.308Z,1.30
2018-07-22T07:53:37.143Z,1.17
2018-07-22T07:56:43.047Z,1.73
2018-07-22T07:59:47.934Z,2.10
2018-07-22T08:02:53.868Z,1.20
2018-07-22T08:05:59.751Z,1.77
2018-07-22T08:09:07.128Z,2.40
2018-07-22T08:12:12.670Z,1.70
2018-07-22T08:15:18.337Z,1.70
2018-07-22T08:18:24.456Z,2.00
2018-07-22T08:21:29.345Z,1.80
2018-07-22T08:24:35.291Z,1.70
2018-07-22T08:27:40.184Z,2.17
2018-07-22T08:30:46.093Z,2.07
2018-07-22T08:33:50.976Z,1.27
2018-07-22T08:36:56.647Z,1.87
2018-07-22T08:40:02.831Z,1.70
2018-07-22T08:43:09.587Z,2.00
2018-07-22T08:46:15.174Z,1.60
2018-07-22T08:49:20.978Z,1.90
2018-07-22T08:52:26.814Z,1.60
2018-07-22T08:55:32.522Z,2.13
2018-07-22T08:58:39.237Z,1.77
2018-07-22T09:01:44.152Z,1.80
2018-07-22T09:04:50.155Z,1.87
2018-07-22T09:07:56.703Z,1.90
2018-07-22T09:11:01.980Z,2.50
2018-07-22T09:14:08.372Z,2.20
2018-07-22T09:17:13.251Z,1.83
2018-07-22T09:20:18.147Z,1.40
2018-07-22T09:23:23.015Z,1.53
2018-07-22T09:26:28.423Z,2.13
2018-07-22T09:29:33.307Z,1.87
2018-07-22T09:32:38.627Z,2.50
2018-07-22T09:35:44.297Z,2.00
2018-07-22T09:38:49.649Z,1.60
2018-07-22T09:41:55.148Z,1.97
2018-07-22T09:45:01.463Z,2.37
2018-07-22T09:48:06.374Z,2.67
2018-07-22T09:51:12.643Z,1.90
2018-07-22T09:54:17.889Z,2.00
2018-07-22T09:57:22.803Z,1.50
2018-07-22T10:00:33.374Z,1.73
2018-07-22T10:03:38.783Z,1.93
2018-07-22T10:06:45.239Z,2.33
2018-07-22T10:09:51.216Z,1.57
2018-07-22T10:12:57.062Z,2.70
2018-07-22T10:16:01.936Z,1.57
2018-07-22T10:19:06.840Z,1.87
2018-07-22T10:22:11.991Z,2.20
2018-07-22T10:25:17.363Z,1.70
2018-07-22T10:28:22.291Z,1.67
2018-07-22T10:31:27.188Z,1.53
2018-07-22T10:34:32.485Z,1.83
2018-07-22T10:37:38.347Z,2.13
2018-07-22T10:40:43.986Z,2.10
2018-07-22T10:43:49.994Z,1.97
2018-07-22T10:46:55.228Z,2.00
2018-07-22T10:50:00.468Z,1.33
2018-07-22T10:53:06.216Z,1.83
2018-07-22T10:56:12.072Z,1.83
2018-07-22T10:59:17.321Z,2.10
2018-07-22T11:02:22.980Z,1.80
2018-07-22T11:05:28.811Z,1.97
2018-07-22T11:08:34.654Z,1.93
2018-07-22T11:11:40.605Z,1.70
2018-07-22T11:14:46.171Z,2.03
2018-07-22T11:17:52.437Z,1.90
2018-07-22T11:20:58.742Z,1.87
2018-07-22T11:24:04.824Z,1.80
2018-07-22T11:27:09.716Z,1.83
2018-07-22T11:30:15.653Z,2.17
2018-07-22T11:33:20.519Z,2.07
2018-07-22T11:36:27.497Z,1.73
2018-07-22T11:39:33.202Z,1.67
2018-07-22T11:42:39.599Z,1.73
2018-07-22T11:45:46.319Z,1.90
2018-07-22T11:48:51.573Z,1.80
2018-07-22T11:51:57.784Z,1.83
2018-07-22T11:55:02.657Z,1.60
2018-07-22T11:58:07.689Z,1.47
2018-07-22T12:01:13.525Z,1.47
2018-07-22T12:04:18.391Z,1.70
2018-07-22T12:07:24.509Z,2.00
2018-07-22T12:10:29.813Z,1.77
2018-07-22T12:13:34.700Z,1.33
2018-07-22T12:16:40.492Z,1.63
2018-07-22T12:19:45.403Z,1.73
2018-07-22T12:22:50.787Z,1.50
2018-07-22T12:25:56.688Z,1.87
2018-07-22T12:29:02.578Z,1.87
2018-07-22T12:32:08.528Z,1.40
2018-07-22T12:35:14.137Z,1.87
2018-07-22T12:38:20.155Z,1.50
2018-07-22T12:41:26.076Z,1.70
2018-07-22T12:44:30.976Z,1.57
2018-07-22T12:47:36.587Z,1.60
2018-07-22T12:50:41.911Z,1.30
2018-07-22T12:53:47.688Z,1.30
2018-07-22T12:56:53.733Z,0.97
2018-07-22T12:59:58.599Z,1.00
2018-07-22T13:03:04.258Z,1.73
2018-07-22T13:06:10.556Z,1.00
2018-07-22T13:09:16.329Z,1.20
2018-07-22T13:12:21.299Z,1.50
2018-07-22T13:15:27.560Z,1.70
2018-07-22T13:18:34.308Z,1.10
2018-07-22T13:21:39.186Z,1.20
2018-07-22T13:24:44.985Z,1.27
2018-07-22T13:27:50.798Z,1.30
2018-07-22T13:30:56.674Z,1.20
2018-07-22T13:34:01.643Z,1.20
2018-07-22T13:37:07.134Z,1.40
2018-07-22T13:40:12.860Z,1.20
2018-07-22T13:43:17.739Z,1.47
2018-07-22T13:46:22.640Z,1.73
2018-07-22T13:49:28.448Z,1.77
2018-07-22T13:52:33.569Z,1.20
2018-07-22T13:55:38.460Z,1.27
2018-07-22T13:58:44.439Z,1.20
2018-07-22T14:01:50.221Z,0.93
2018-07-22T14:04:55.095Z,1.10
2018-07-22T14:08:00.880Z,1.37
2018-07-22T14:11:06.581Z,1.30
2018-07-22T14:14:12.417Z,1.63
2018-07-22T14:17:17.650Z,0.83
2018-07-22T14:20:22.547Z,1.33
2018-07-22T14:23:27.957Z,1.10
2018-07-22T14:26:33.467Z,1.00
2018-07-22T14:29:39.736Z,1.20
2018-07-22T14:32:44.617Z,1.50
2018-07-22T14:35:50.404Z,1.10
2018-07-22T14:38:55.620Z,1.03
2018-07-22T14:42:00.492Z,1.23
2018-07-22T14:45:07.792Z,1.03
2018-07-22T14:48:12.980Z,1.17
2018-07-22T14:51:19.095Z,1.50
2018-07-22T14:54:25.184Z,1.23
2018-07-22T14:57:30.583Z,1.10
2018-07-22T15:00:35.794Z,1.20
2018-07-22T15:03:41.350Z,1.13
2018-07-22T15:06:48.282Z,0.90
2018-07-22T15:09:54.088Z,1.20
2018-07-22T15:12:58.973Z,0.77
2018-07-22T15:16:04.944Z,0.97
2018-07-22T15:19:10.316Z,0.83
2018-07-22T15:22:15.495Z,0.70
2018-07-22T15:25:20.748Z,1.00
2018-07-22T15:28:26.450Z,1.17
2018-07-22T15:31:32.594Z,0.90
2018-07-22T15:34:38.149Z,1.23
2018-07-22T15:37:43.987Z,0.90
2018-07-22T15:40:50.586Z,0.90
2018-07-22T15:43:56.241Z,1.00
2018-07-22T15:47:01.432Z,0.77
2018-07-22T15:50:06.321Z,0.90
2018-07-22T15:53:13.937Z,0.70
2018-07-22T15:56:18.829Z,0.90
2018-07-22T15:59:24.657Z,0.90
2018-07-22T16:02:30.571Z,0.70
2018-07-22T16:05:36.067Z,0.80
2018-07-22T16:08:42.891Z,0.83
2018-07-22T16:11:47.756Z,0.70
2018-07-22T16:14:53.203Z,0.90
2018-07-22T16:17:58.433Z,0.70
2018-07-22T16:21:03.322Z,0.87
2018-07-22T16:24:08.208Z,0.80
2018-07-22T16:27:14.997Z,0.70
2018-07-22T16:30:21.007Z,0.97
2018-07-22T16:33:26.219Z,0.80
2018-07-22T16:36:31.125Z,0.60
2018-07-22T16:39:36.003Z,0.80
2018-07-22T16:42:41.431Z,0.80
2018-07-22T16:45:46.331Z,0.83
2018-07-22T16:48:52.106Z,0.60
2018-07-22T16:51:57.900Z,0.50
2018-07-22T16:55:02.793Z,0.70
2018-07-22T16:58:07.668Z,0.97
2018-07-22T17:01:12.617Z,0.77
2018-07-22T17:04:18.431Z,0.50
2018-07-22T17:07:24.320Z,0.80
2018-07-22T17:10:30.360Z,0.53
2018-07-22T17:13:36.273Z,0.53
2018-07-22T17:16:42.191Z,0.80
2018-07-22T17:19:47.399Z,0.53
2018-07-22T17:22:53.209Z,0.50
2018-07-22T17:25:59.184Z,0.73
2018-07-22T17:29:06.010Z,1.00
2018-07-22T17:32:11.689Z,0.60
2018-07-22T17:35:17.487Z,0.60
2018-07-22T17:38:22.888Z,0.80
2018-07-22T17:41:27.807Z,0.87
2018-07-22T17:44:34.517Z,0.70
2018-07-22T17:47:40.287Z,0.60
2018-07-22T17:50:47.096Z,0.60
2018-07-22T17:53:52.860Z,0.70
2018-07-22T17:56:59.703Z,0.57
2018-07-22T18:00:04.933Z,0.93
2018-07-22T18:03:21.268Z,0.90
2018-07-22T18:06:27.426Z,0.93
2018-07-22T18:09:32.611Z,0.80
2018-07-22T18:12:38.399Z,0.50
2018-07-22T18:15:44.832Z,0.60
2018-07-22T18:18:51.136Z,0.50
2018-07-22T18:21:57.806Z,0.60
2018-07-22T18:25:03.955Z,0.50
2018-07-22T18:28:10.814Z,0.70
2018-07-22T18:31:16.852Z,0.80
2018-07-22T18:34:22.199Z,0.77
2018-07-22T18:37:29.839Z,0.70
2018-07-22T18:40:37.359Z,0.70
2018-07-22T18:43:46.748Z,0.60
2018-07-22T18:46:53.432Z,0.50
2018-07-22T18:49:59.455Z,0.67
2018-07-22T18:53:06.244Z,0.87
2018-07-22T18:56:13.443Z,0.60
2018-07-22T18:59:19.316Z,0.80
2018-07-22T19:02:27.831Z,0.70
2018-07-22T19:05:33.040Z,0.50
2018-07-22T19:08:38.128Z,0.80
2018-07-22T19:11:43.345Z,0.60
2018-07-22T19:14:48.579Z,1.00
2018-07-22T19:17:55.960Z,0.70
2018-07-22T19:21:02.039Z,0.70
2018-07-22T19:24:08.480Z,1.17
2018-07-22T19:27:14.768Z,0.63
2018-07-22T19:30:20.684Z,0.63
2018-07-22T19:33:26.684Z,0.50
2018-07-22T19:36:33.552Z,0.70
2018-07-22T19:39:39.571Z,0.63
2018-07-22T19:42:46.165Z,0.50
2018-07-22T19:45:52.063Z,0.80
2018-07-22T19:48:58.065Z,0.80
2018-07-22T19:52:03.980Z,0.60
2018-07-22T19:55:10.046Z,0.80
2018-07-22T19:58:16.402Z,0.70
2018-07-22T20:01:23.635Z,0.60
2018-07-22T20:04:30.774Z,0.77
2018-07-22T20:07:36.337Z,0.80
2018-07-22T20:10:42.474Z,0.60
2018-07-22T20:13:48.383Z,0.60
2018-07-22T20:16:54.533Z,0.80
2018-07-22T20:20:01.479Z,1.03
2018-07-22T20:23:07.121Z,0.87
2018-07-22T20:26:14.380Z,1.00
2018-07-22T20:29:20.753Z,0.77
2018-07-22T20:32:26.909Z,0.60
2018-07-22T20:35:32.110Z,0.50
2018-07-22T20:38:37.286Z,0.90
2018-07-22T20:41:44.490Z,0.73
2018-07-22T20:44:50.607Z,0.73
2018-07-22T20:47:55.862Z,0.80
2018-07-22T20:51:01.272Z,0.80
2018-07-22T20:54:07.460Z,0.60
2018-07-22T20:57:12.666Z,0.70
2018-07-22T21:00:18.862Z,0.73
2018-07-22T21:03:24.486Z,0.60
2018-07-22T21:06:31.043Z,0.93
2018-07-22T21:09:37.131Z,0.90
2018-07-22T21:12:54.663Z,0.73
2018-07-22T21:15:59.610Z,0.50
2018-07-22T21:19:05.123Z,0.83
2018-07-22T21:22:11.335Z,0.60
2018-07-22T21:25:20.326Z,0.83
2018-07-22T21:28:37.677Z,0.60
2018-07-22T21:31:50.681Z,0.57
2018-07-22T21:35:05.447Z,0.60
2018-07-22T21:38:12.338Z,0.73
2018-07-22T21:41:18.415Z,0.83
2018-07-22T21:44:23.568Z,0.90
2018-07-22T21:47:42.288Z,0.50
2018-07-22T21:50:58.250Z,0.73
2018-07-22T21:54:05.495Z,0.60
2018-07-22T21:57:22.077Z,0.73
2018-07-22T22:00:38.389Z,0.60
2018-07-22T22:03:47.056Z,0.70
2018-07-22T22:07:02.829Z,0.50
2018-07-22T22:10:08.640Z,0.83
2018-07-22T22:13:14.335Z,0.50
2018-07-22T22:16:20.328Z,0.40
2018-07-22T22:19:26.505Z,0.70
2018-07-22T22:22:31.744Z,0.70
2018-07-22T22:25:36.884Z,0.80
2018-07-22T22:28:42.082Z,0.77
2018-07-22T22:31:49.111Z,0.70
2018-07-22T22:34:55.342Z,0.70
2018-07-22T22:38:00.851Z,0.80
2018-07-22T22:41:07.398Z,0.60
2018-07-22T22:44:13.179Z,0.67
2018-07-22T22:47:19.316Z,0.83
2018-07-22T22:50:24.458Z,0.77
2018-07-22T22:53:29.620Z,0.60
2018-07-22T22:56:34.811Z,0.60
2018-07-22T22:59:40.215Z,0.77
2018-07-22T23:02:46.442Z,0.60
2018-07-22T23:05:51.623Z,0.83
2018-07-22T23:08:57.731Z,0.33
2018-07-22T23:12:03.622Z,0.50
2018-07-22T23:15:08.804Z,0.80
2018-07-22T23:18:13.955Z,0.50
2018-07-22T23:21:19.442Z,0.77
2018-07-22T23:24:25.415Z,0.50
2018-07-22T23:27:31.547Z,0.70
2018-07-22T23:30:36.687Z,1.00
2018-07-22T23:33:41.906Z,0.93
2018-07-22T23:36:47.050Z,0.80
2018-07-22T23:39:52.551Z,0.60
2018-07-22T23:42:57.741Z,1.00
2018-07-22T23:46:02.918Z,0.83
2018-07-22T23:49:09.117Z,0.60
2018-07-22T23:52:15.935Z,0.87
2018-07-22T23:55:21.107Z,1.50
2018-07-22T23:58:27.283Z,1.00
